sensor_id;sensor_type;location;lat;lon;timestamp;temperature;humidity
15630;DHT22;7914;50.842;0.166;2022-09-09T00:01:43;16.40;99.90
15630;DHT22;7914;50.842;0.166;2022-09-09T00:04:29;16.40;99.90
15630;DHT22;7914;50.842;0.166;2022-09-09T00:07:13;16.40;99.90
15630;DHT22;7914;50.842;0.166;2022-09-09T00:09:58;16.40;99.90
15630;DHT22;7914;50.842;0.166;2022-09-09T00:21:06;16.50;99.90
15630;DHT22;7914;50.842;0.166;2022-09-09T00:23:39;16.40;99.90
15630;DHT22;7914;50.842;0.166;2022-09-09T00:26:41;16.40;99.90
15630;DHT22;7914;50.842;0.166;2022-09-09T00:31:34;16.40;99.90
15630;DHT22;7914;50.842;0.166;2022-09-09T00:34:09;16.50;99.90
15630;DHT22;7914;50.842;0.166;2022-09-09T00:36:38;16.50;99.90
15630;DHT22;7914;50.842;0.166;2022-09-09T00:39:05;16.40;99.90
15630;DHT22;7914;50.842;0.166;2022-09-09T00:44:17;16.30;99.90
15630;DHT22;7914;50.842;0.166;2022-09-09T00:52:35;16.10;99.90
15630;DHT22;7914;50.842;0.166;2022-09-09T00:57:52;16.10;99.90
15630;DHT22;7914;50.842;0.166;2022-09-09T01:07:53;16.00;99.90
15630;DHT22;7914;50.842;0.166;2022-09-09T01:10:31;16.00;99.90
15630;DHT22;7914;50.842;0.166;2022-09-09T01:13:04;16.00;99.90
15630;DHT22;7914;50.842;0.166;2022-09-09T01:15:32;16.00;99.90
15630;DHT22;7914;50.842;0.166;2022-09-09T01:20:50;16.10;99.90
15630;DHT22;7914;50.842;0.166;2022-09-09T01:28:46;16.10;99.90
15630;DHT22;7914;50.842;0.166;2022-09-09T01:31:17;16.00;99.90
15630;DHT22;7914;50.842;0.166;2022-09-09T01:33:44;16.00;99.90
15630;DHT22;7914;50.842;0.166;2022-09-09T01:36:15;15.90;99.90
15630;DHT22;7914;50.842;0.166;2022-09-09T01:38:43;15.90;99.90
15630;DHT22;7914;50.842;0.166;2022-09-09T01:41:09;15.90;99.90
15630;DHT22;7914;50.842;0.166;2022-09-09T01:43:34;15.90;99.90
15630;DHT22;7914;50.842;0.166;2022-09-09T01:46:01;15.90;99.90
15630;DHT22;7914;50.842;0.166;2022-09-09T01:48:28;15.80;99.90
15630;DHT22;7914;50.842;0.166;2022-09-09T01:50:54;15.80;99.90
15630;DHT22;7914;50.842;0.166;2022-09-09T01:53:21;15.70;99.90
15630;DHT22;7914;50.842;0.166;2022-09-09T02:06:56;15.50;99.90
15630;DHT22;7914;50.842;0.166;2022-09-09T02:09:24;15.50;99.90
15630;DHT22;7914;50.842;0.166;2022-09-09T02:12:05;15.50;99.90
15630;DHT22;7914;50.842;0.166;2022-09-09T02:14:37;15.40;99.90
15630;DHT22;7914;50.842;0.166;2022-09-09T02:17:10;15.30;99.90
15630;DHT22;7914;50.842;0.166;2022-09-09T02:19:41;15.30;99.90
15630;DHT22;7914;50.842;0.166;2022-09-09T02:22:07;15.20;99.90
15630;DHT22;7914;50.842;0.166;2022-09-09T02:24:36;15.20;99.90
15630;DHT22;7914;50.842;0.166;2022-09-09T02:27:05;15.10;99.90
15630;DHT22;7914;50.842;0.166;2022-09-09T02:29:41;15.00;99.90
15630;DHT22;7914;50.842;0.166;2022-09-09T02:32:19;15.00;99.90
15630;DHT22;7914;50.842;0.166;2022-09-09T02:34:49;14.90;99.90
15630;DHT22;7914;50.842;0.166;2022-09-09T02:37:19;14.90;99.90
15630;DHT22;7914;50.842;0.166;2022-09-09T02:39:46;14.90;99.90
15630;DHT22;7914;50.842;0.166;2022-09-09T02:42:12;14.90;99.90
15630;DHT22;7914;50.842;0.166;2022-09-09T02:44:40;14.90;99.90
15630;DHT22;7914;50.842;0.166;2022-09-09T02:52:19;14.90;99.90
15630;DHT22;7914;50.842;0.166;2022-09-09T02:54:49;14.90;99.90
15630;DHT22;7914;50.842;0.166;2022-09-09T02:57:28;14.90;99.90
15630;DHT22;7914;50.842;0.166;2022-09-09T02:59:57;14.80;99.90
15630;DHT22;7914;50.842;0.166;2022-09-09T03:02:24;14.80;99.90
15630;DHT22;7914;50.842;0.166;2022-09-09T03:04:51;14.80;99.90
15630;DHT22;7914;50.842;0.166;2022-09-09T03:07:20;14.80;99.90
15630;DHT22;7914;50.842;0.166;2022-09-09T03:09:46;14.80;99.90
15630;DHT22;7914;50.842;0.166;2022-09-09T03:12:12;14.80;99.90
15630;DHT22;7914;50.842;0.166;2022-09-09T03:14:38;14.80;99.90
15630;DHT22;7914;50.842;0.166;2022-09-09T03:17:05;14.70;99.90
15630;DHT22;7914;50.842;0.166;2022-09-09T03:19:31;14.70;99.90
15630;DHT22;7914;50.842;0.166;2022-09-09T03:21:58;14.70;99.90
15630;DHT22;7914;50.842;0.166;2022-09-09T03:24:24;14.80;99.90
15630;DHT22;7914;50.842;0.166;2022-09-09T03:26:50;14.80;99.90
15630;DHT22;7914;50.842;0.166;2022-09-09T03:29:16;14.80;99.90
15630;DHT22;7914;50.842;0.166;2022-09-09T03:31:42;14.80;99.90
15630;DHT22;7914;50.842;0.166;2022-09-09T03:34:08;14.80;99.90
15630;DHT22;7914;50.842;0.166;2022-09-09T03:36:34;14.80;99.90
15630;DHT22;7914;50.842;0.166;2022-09-09T03:39:00;14.80;99.90
15630;DHT22;7914;50.842;0.166;2022-09-09T03:41:28;14.80;99.90
15630;DHT22;7914;50.842;0.166;2022-09-09T03:43:54;14.80;99.90
15630;DHT22;7914;50.842;0.166;2022-09-09T03:46:21;14.80;99.90
15630;DHT22;7914;50.842;0.166;2022-09-09T03:48:48;14.80;99.90
15630;DHT22;7914;50.842;0.166;2022-09-09T03:51:14;14.90;99.90
15630;DHT22;7914;50.842;0.166;2022-09-09T03:53:40;14.90;99.90
15630;DHT22;7914;50.842;0.166;2022-09-09T03:56:06;14.90;99.90
15630;DHT22;7914;50.842;0.166;2022-09-09T03:58:33;14.90;99.90
15630;DHT22;7914;50.842;0.166;2022-09-09T04:01:13;15.00;99.90
15630;DHT22;7914;50.842;0.166;2022-09-09T04:03:40;15.00;99.90
15630;DHT22;7914;50.842;0.166;2022-09-09T04:06:07;15.00;99.90
15630;DHT22;7914;50.842;0.166;2022-09-09T04:08:34;15.00;99.90
15630;DHT22;7914;50.842;0.166;2022-09-09T04:11:01;15.00;99.90
15630;DHT22;7914;50.842;0.166;2022-09-09T04:13:32;15.00;99.90
15630;DHT22;7914;50.842;0.166;2022-09-09T04:16:01;15.10;99.90
15630;DHT22;7914;50.842;0.166;2022-09-09T04:18:28;15.10;99.90
15630;DHT22;7914;50.842;0.166;2022-09-09T04:20:54;15.10;99.90
15630;DHT22;7914;50.842;0.166;2022-09-09T04:23:23;15.10;99.90
15630;DHT22;7914;50.842;0.166;2022-09-09T04:25:52;15.20;99.90
15630;DHT22;7914;50.842;0.166;2022-09-09T04:28:19;15.20;99.90
15630;DHT22;7914;50.842;0.166;2022-09-09T04:30:46;15.10;99.90
15630;DHT22;7914;50.842;0.166;2022-09-09T04:33:12;15.10;99.90
15630;DHT22;7914;50.842;0.166;2022-09-09T04:35:39;15.20;99.90
15630;DHT22;7914;50.842;0.166;2022-09-09T04:38:06;15.20;99.90
15630;DHT22;7914;50.842;0.166;2022-09-09T04:40:35;15.20;99.90
15630;DHT22;7914;50.842;0.166;2022-09-09T04:43:02;15.20;99.90
15630;DHT22;7914;50.842;0.166;2022-09-09T04:45:30;15.20;99.90
15630;DHT22;7914;50.842;0.166;2022-09-09T04:47:56;15.30;99.90
15630;DHT22;7914;50.842;0.166;2022-09-09T04:50:22;15.20;99.90
15630;DHT22;7914;50.842;0.166;2022-09-09T04:52:48;15.20;99.90
15630;DHT22;7914;50.842;0.166;2022-09-09T04:55:14;15.20;99.90
15630;DHT22;7914;50.842;0.166;2022-09-09T04:57:40;15.20;99.90
15630;DHT22;7914;50.842;0.166;2022-09-09T05:00:06;15.20;99.90
15630;DHT22;7914;50.842;0.166;2022-09-09T05:02:32;15.20;99.90
15630;DHT22;7914;50.842;0.166;2022-09-09T05:04:59;15.20;99.90
15630;DHT22;7914;50.842;0.166;2022-09-09T05:07:38;15.30;99.90
15630;DHT22;7914;50.842;0.166;2022-09-09T05:10:04;15.30;99.90
15630;DHT22;7914;50.842;0.166;2022-09-09T05:12:31;15.30;99.90
15630;DHT22;7914;50.842;0.166;2022-09-09T05:14:57;15.30;99.90
15630;DHT22;7914;50.842;0.166;2022-09-09T05:17:23;15.20;99.90
15630;DHT22;7914;50.842;0.166;2022-09-09T05:19:49;15.20;99.90
15630;DHT22;7914;50.842;0.166;2022-09-09T05:22:21;15.20;99.90
15630;DHT22;7914;50.842;0.166;2022-09-09T05:24:49;15.20;99.90
15630;DHT22;7914;50.842;0.166;2022-09-09T05:27:17;15.20;99.90
15630;DHT22;7914;50.842;0.166;2022-09-09T05:29:45;15.30;99.90
15630;DHT22;7914;50.842;0.166;2022-09-09T05:32:10;15.20;99.90
15630;DHT22;7914;50.842;0.166;2022-09-09T05:34:36;15.20;99.90
15630;DHT22;7914;50.842;0.166;2022-09-09T05:37:05;15.20;99.90
15630;DHT22;7914;50.842;0.166;2022-09-09T05:39:32;15.20;99.90
15630;DHT22;7914;50.842;0.166;2022-09-09T05:41:58;15.20;99.90
15630;DHT22;7914;50.842;0.166;2022-09-09T05:44:23;15.30;99.90
15630;DHT22;7914;50.842;0.166;2022-09-09T05:46:53;15.30;99.90
15630;DHT22;7914;50.842;0.166;2022-09-09T05:49:20;15.30;99.90
15630;DHT22;7914;50.842;0.166;2022-09-09T05:51:46;15.30;99.90
15630;DHT22;7914;50.842;0.166;2022-09-09T05:54:14;15.30;99.90
15630;DHT22;7914;50.842;0.166;2022-09-09T05:56:41;15.30;99.90
15630;DHT22;7914;50.842;0.166;2022-09-09T05:59:07;15.30;99.90
15630;DHT22;7914;50.842;0.166;2022-09-09T06:01:35;15.40;99.90
15630;DHT22;7914;50.842;0.166;2022-09-09T06:04:01;15.40;99.90
15630;DHT22;7914;50.842;0.166;2022-09-09T06:06:31;15.40;99.90
15630;DHT22;7914;50.842;0.166;2022-09-09T06:09:03;15.50;99.90
15630;DHT22;7914;50.842;0.166;2022-09-09T06:11:32;15.50;99.90
15630;DHT22;7914;50.842;0.166;2022-09-09T06:13:58;15.50;99.90
15630;DHT22;7914;50.842;0.166;2022-09-09T06:16:25;15.60;99.90
15630;DHT22;7914;50.842;0.166;2022-09-09T06:18:52;15.70;99.90
15630;DHT22;7914;50.842;0.166;2022-09-09T06:21:21;15.80;99.90
15630;DHT22;7914;50.842;0.166;2022-09-09T06:23:48;15.80;99.90
15630;DHT22;7914;50.842;0.166;2022-09-09T06:26:19;15.80;99.90
15630;DHT22;7914;50.842;0.166;2022-09-09T06:28:46;15.80;99.90
15630;DHT22;7914;50.842;0.166;2022-09-09T06:31:18;15.90;99.90
15630;DHT22;7914;50.842;0.166;2022-09-09T06:33:48;15.90;99.90
15630;DHT22;7914;50.842;0.166;2022-09-09T06:36:20;15.90;99.90
15630;DHT22;7914;50.842;0.166;2022-09-09T06:38:46;15.90;99.90
15630;DHT22;7914;50.842;0.166;2022-09-09T06:41:14;15.90;99.90
15630;DHT22;7914;50.842;0.166;2022-09-09T06:43:39;15.90;99.90
15630;DHT22;7914;50.842;0.166;2022-09-09T06:46:11;15.90;99.90
15630;DHT22;7914;50.842;0.166;2022-09-09T06:48:39;16.00;99.90
15630;DHT22;7914;50.842;0.166;2022-09-09T06:51:20;16.10;99.90
15630;DHT22;7914;50.842;0.166;2022-09-09T06:53:49;16.10;99.90
15630;DHT22;7914;50.842;0.166;2022-09-09T06:56:28;16.10;99.90
15630;DHT22;7914;50.842;0.166;2022-09-09T06:58:55;16.10;99.90
15630;DHT22;7914;50.842;0.166;2022-09-09T07:01:24;16.20;99.90
15630;DHT22;7914;50.842;0.166;2022-09-09T07:03:54;16.20;99.90
15630;DHT22;7914;50.842;0.166;2022-09-09T07:06:25;16.20;99.90
15630;DHT22;7914;50.842;0.166;2022-09-09T07:08:53;16.30;99.90
15630;DHT22;7914;50.842;0.166;2022-09-09T07:11:20;16.30;99.90
15630;DHT22;7914;50.842;0.166;2022-09-09T07:13:47;16.30;99.90
15630;DHT22;7914;50.842;0.166;2022-09-09T07:16:15;16.30;99.90
15630;DHT22;7914;50.842;0.166;2022-09-09T07:18:41;16.30;99.90
15630;DHT22;7914;50.842;0.166;2022-09-09T07:21:08;16.40;99.90
15630;DHT22;7914;50.842;0.166;2022-09-09T07:23:35;16.30;99.90
15630;DHT22;7914;50.842;0.166;2022-09-09T07:26:08;16.30;99.90
15630;DHT22;7914;50.842;0.166;2022-09-09T07:28:35;16.30;99.90
15630;DHT22;7914;50.842;0.166;2022-09-09T07:31:01;16.30;99.90
15630;DHT22;7914;50.842;0.166;2022-09-09T07:33:31;16.40;99.90
15630;DHT22;7914;50.842;0.166;2022-09-09T07:36:22;16.40;99.90
15630;DHT22;7914;50.842;0.166;2022-09-09T07:38:51;16.60;99.90
15630;DHT22;7914;50.842;0.166;2022-09-09T07:41:23;16.60;99.90
15630;DHT22;7914;50.842;0.166;2022-09-09T07:43:49;16.70;99.90
15630;DHT22;7914;50.842;0.166;2022-09-09T07:46:17;16.80;99.90
15630;DHT22;7914;50.842;0.166;2022-09-09T07:48:51;16.80;99.90
15630;DHT22;7914;50.842;0.166;2022-09-09T07:51:19;16.80;99.90
15630;DHT22;7914;50.842;0.166;2022-09-09T07:53:47;16.90;99.90
15630;DHT22;7914;50.842;0.166;2022-09-09T07:56:15;16.80;99.90
15630;DHT22;7914;50.842;0.166;2022-09-09T07:58:46;16.70;99.90
15630;DHT22;7914;50.842;0.166;2022-09-09T08:01:24;16.80;99.90
15630;DHT22;7914;50.842;0.166;2022-09-09T08:04:05;16.90;99.90
15630;DHT22;7914;50.842;0.166;2022-09-09T08:06:40;16.90;99.90
15630;DHT22;7914;50.842;0.166;2022-09-09T08:09:07;17.10;99.90
15630;DHT22;7914;50.842;0.166;2022-09-09T08:11:34;17.20;99.90
15630;DHT22;7914;50.842;0.166;2022-09-09T08:14:02;17.30;99.90
15630;DHT22;7914;50.842;0.166;2022-09-09T08:16:31;17.30;99.90
15630;DHT22;7914;50.842;0.166;2022-09-09T08:18:57;17.30;99.90
15630;DHT22;7914;50.842;0.166;2022-09-09T08:21:25;17.30;99.90
15630;DHT22;7914;50.842;0.166;2022-09-09T08:23:54;17.30;99.90
15630;DHT22;7914;50.842;0.166;2022-09-09T08:26:29;17.60;99.90
15630;DHT22;7914;50.842;0.166;2022-09-09T08:28:57;17.90;99.90
15630;DHT22;7914;50.842;0.166;2022-09-09T08:31:29;18.20;99.90
15630;DHT22;7914;50.842;0.166;2022-09-09T08:33:56;18.40;99.90
15630;DHT22;7914;50.842;0.166;2022-09-09T08:36:24;18.60;99.90
15630;DHT22;7914;50.842;0.166;2022-09-09T08:38:52;18.80;99.90
15630;DHT22;7914;50.842;0.166;2022-09-09T08:52:31;18.70;99.90
15630;DHT22;7914;50.842;0.166;2022-09-09T08:57:54;18.50;99.90
15630;DHT22;7914;50.842;0.166;2022-09-09T09:00:21;18.70;99.90
15630;DHT22;7914;50.842;0.166;2022-09-09T09:03:30;18.80;99.90
15630;DHT22;7914;50.842;0.166;2022-09-09T09:11:59;19.30;99.90
15630;DHT22;7914;50.842;0.166;2022-09-09T09:14:29;19.50;99.90
15630;DHT22;7914;50.842;0.166;2022-09-09T09:17:00;19.50;99.90
15630;DHT22;7914;50.842;0.166;2022-09-09T09:19:27;19.40;99.90
15630;DHT22;7914;50.842;0.166;2022-09-09T09:22:06;19.40;99.90
15630;DHT22;7914;50.842;0.166;2022-09-09T09:24:55;19.30;99.90
15630;DHT22;7914;50.842;0.166;2022-09-09T09:30:20;18.70;99.90
15630;DHT22;7914;50.842;0.166;2022-09-09T09:33:03;18.30;99.90
15630;DHT22;7914;50.842;0.166;2022-09-09T09:35:31;18.20;99.90
15630;DHT22;7914;50.842;0.166;2022-09-09T09:37:57;18.20;99.90
15630;DHT22;7914;50.842;0.166;2022-09-09T09:40:26;18.10;99.90
15630;DHT22;7914;50.842;0.166;2022-09-09T09:42:57;18.30;99.90
15630;DHT22;7914;50.842;0.166;2022-09-09T09:45:33;18.40;99.90
15630;DHT22;7914;50.842;0.166;2022-09-09T09:48:02;18.50;99.90
15630;DHT22;7914;50.842;0.166;2022-09-09T09:50:28;18.60;99.90
15630;DHT22;7914;50.842;0.166;2022-09-09T09:52:56;18.70;99.90
15630;DHT22;7914;50.842;0.166;2022-09-09T09:55:23;18.90;99.90
15630;DHT22;7914;50.842;0.166;2022-09-09T09:57:50;18.90;99.90
15630;DHT22;7914;50.842;0.166;2022-09-09T10:00:22;19.00;99.90
15630;DHT22;7914;50.842;0.166;2022-09-09T10:02:49;18.80;99.90
15630;DHT22;7914;50.842;0.166;2022-09-09T10:05:23;18.70;99.90
15630;DHT22;7914;50.842;0.166;2022-09-09T10:08:15;18.60;99.90
15630;DHT22;7914;50.842;0.166;2022-09-09T10:11:22;18.50;99.90
15630;DHT22;7914;50.842;0.166;2022-09-09T10:19:33;18.50;99.90
15630;DHT22;7914;50.842;0.166;2022-09-09T10:36:13;19.80;99.90
15630;DHT22;7914;50.842;0.166;2022-09-09T10:38:52;20.00;99.90
15630;DHT22;7914;50.842;0.166;2022-09-09T10:55:09;21.00;99.90
15630;DHT22;7914;50.842;0.166;2022-09-09T10:57:52;21.10;99.90
15630;DHT22;7914;50.842;0.166;2022-09-09T11:00:36;21.10;99.90
15630;DHT22;7914;50.842;0.166;2022-09-09T11:03:04;21.00;99.90
15630;DHT22;7914;50.842;0.166;2022-09-09T11:05:42;20.80;99.90
15630;DHT22;7914;50.842;0.166;2022-09-09T11:08:21;20.50;99.90
15630;DHT22;7914;50.842;0.166;2022-09-09T11:16:39;20.20;99.90
15630;DHT22;7914;50.842;0.166;2022-09-09T11:24:49;20.70;99.90
15630;DHT22;7914;50.842;0.166;2022-09-09T11:30:18;20.20;99.90
15630;DHT22;7914;50.842;0.166;2022-09-09T11:36:00;20.30;99.90
15630;DHT22;7914;50.842;0.166;2022-09-09T11:38:45;20.40;99.90
15630;DHT22;7914;50.842;0.166;2022-09-09T11:41:13;21.10;99.90
15630;DHT22;7914;50.842;0.166;2022-09-09T11:43:45;21.70;99.90
15630;DHT22;7914;50.842;0.166;2022-09-09T11:46:14;21.70;99.90
15630;DHT22;7914;50.842;0.166;2022-09-09T11:48:43;21.70;96.60
15630;DHT22;7914;50.842;0.166;2022-09-09T11:51:26;21.60;99.90
15630;DHT22;7914;50.842;0.166;2022-09-09T11:53:58;21.00;99.90
15630;DHT22;7914;50.842;0.166;2022-09-09T11:56:30;20.70;99.90
15630;DHT22;7914;50.842;0.166;2022-09-09T11:59:06;20.20;99.90
15630;DHT22;7914;50.842;0.166;2022-09-09T12:01:43;19.90;99.90
15630;DHT22;7914;50.842;0.166;2022-09-09T12:04:40;19.80;99.90
15630;DHT22;7914;50.842;0.166;2022-09-09T12:09:52;19.90;99.90
15630;DHT22;7914;50.842;0.166;2022-09-09T12:12:34;20.20;99.90
15630;DHT22;7914;50.842;0.166;2022-09-09T12:17:45;20.80;99.90
15630;DHT22;7914;50.842;0.166;2022-09-09T12:34:24;21.50;99.90
15630;DHT22;7914;50.842;0.166;2022-09-09T12:36:59;21.40;99.90
15630;DHT22;7914;50.842;0.166;2022-09-09T12:39:36;21.40;99.90
15630;DHT22;7914;50.842;0.166;2022-09-09T12:42:03;21.40;99.90
15630;DHT22;7914;50.842;0.166;2022-09-09T12:44:29;21.30;99.90
15630;DHT22;7914;50.842;0.166;2022-09-09T12:46:58;21.20;99.90
15630;DHT22;7914;50.842;0.166;2022-09-09T12:49:31;21.20;99.90
15630;DHT22;7914;50.842;0.166;2022-09-09T12:52:05;21.30;99.90
15630;DHT22;7914;50.842;0.166;2022-09-09T12:54:34;21.30;99.90
15630;DHT22;7914;50.842;0.166;2022-09-09T12:57:00;21.30;99.90
15630;DHT22;7914;50.842;0.166;2022-09-09T12:59:38;21.30;99.90
15630;DHT22;7914;50.842;0.166;2022-09-09T13:02:22;21.10;99.90
15630;DHT22;7914;50.842;0.166;2022-09-09T13:04:49;20.90;99.90
15630;DHT22;7914;50.842;0.166;2022-09-09T13:07:19;20.80;99.90
15630;DHT22;7914;50.842;0.166;2022-09-09T13:09:46;20.70;99.90
15630;DHT22;7914;50.842;0.166;2022-09-09T13:12:16;20.60;99.90
15630;DHT22;7914;50.842;0.166;2022-09-09T13:14:46;20.40;99.90
15630;DHT22;7914;50.842;0.166;2022-09-09T13:17:26;20.20;99.90
15630;DHT22;7914;50.842;0.166;2022-09-09T13:19:54;20.00;99.90
15630;DHT22;7914;50.842;0.166;2022-09-09T13:22:37;19.90;99.90
15630;DHT22;7914;50.842;0.166;2022-09-09T13:27:34;19.70;99.90
15630;DHT22;7914;50.842;0.166;2022-09-09T13:32:47;19.80;99.90
15630;DHT22;7914;50.842;0.166;2022-09-09T13:35:24;20.00;99.90
15630;DHT22;7914;50.842;0.166;2022-09-09T13:37:49;20.10;99.90
15630;DHT22;7914;50.842;0.166;2022-09-09T13:40:21;20.20;99.90
15630;DHT22;7914;50.842;0.166;2022-09-09T13:42:56;20.10;99.90
15630;DHT22;7914;50.842;0.166;2022-09-09T13:45:25;20.20;99.90
15630;DHT22;7914;50.842;0.166;2022-09-09T13:47:54;20.20;99.90
15630;DHT22;7914;50.842;0.166;2022-09-09T13:50:28;20.20;99.90
15630;DHT22;7914;50.842;0.166;2022-09-09T13:52:56;20.20;99.90
15630;DHT22;7914;50.842;0.166;2022-09-09T13:55:25;20.10;99.90
15630;DHT22;7914;50.842;0.166;2022-09-09T13:57:55;20.20;99.90
15630;DHT22;7914;50.842;0.166;2022-09-09T14:00:22;20.30;99.90
15630;DHT22;7914;50.842;0.166;2022-09-09T14:02:49;20.40;99.90
15630;DHT22;7914;50.842;0.166;2022-09-09T14:05:15;20.40;99.90
15630;DHT22;7914;50.842;0.166;2022-09-09T14:07:42;20.30;99.90
15630;DHT22;7914;50.842;0.166;2022-09-09T14:10:09;20.40;99.90
15630;DHT22;7914;50.842;0.166;2022-09-09T14:12:35;20.50;99.90
15630;DHT22;7914;50.842;0.166;2022-09-09T14:15:05;20.50;99.90
15630;DHT22;7914;50.842;0.166;2022-09-09T14:17:33;20.60;99.90
15630;DHT22;7914;50.842;0.166;2022-09-09T14:20:03;20.50;99.90
15630;DHT22;7914;50.842;0.166;2022-09-09T14:22:31;20.30;99.90
15630;DHT22;7914;50.842;0.166;2022-09-09T14:24:57;20.30;99.90
15630;DHT22;7914;50.842;0.166;2022-09-09T14:27:23;20.10;99.90
15630;DHT22;7914;50.842;0.166;2022-09-09T14:29:49;19.90;99.90
15630;DHT22;7914;50.842;0.166;2022-09-09T14:32:14;19.70;99.90
15630;DHT22;7914;50.842;0.166;2022-09-09T14:34:40;19.40;99.90
15630;DHT22;7914;50.842;0.166;2022-09-09T14:37:06;19.20;99.90
15630;DHT22;7914;50.842;0.166;2022-09-09T14:39:31;19.10;99.90
15630;DHT22;7914;50.842;0.166;2022-09-09T14:41:57;19.10;99.90
15630;DHT22;7914;50.842;0.166;2022-09-09T14:44:23;19.10;99.90
15630;DHT22;7914;50.842;0.166;2022-09-09T14:46:49;19.10;99.90
15630;DHT22;7914;50.842;0.166;2022-09-09T14:49:15;19.20;99.90
15630;DHT22;7914;50.842;0.166;2022-09-09T14:51:41;19.30;99.90
15630;DHT22;7914;50.842;0.166;2022-09-09T14:54:07;19.40;99.90
15630;DHT22;7914;50.842;0.166;2022-09-09T14:56:34;19.50;99.90
15630;DHT22;7914;50.842;0.166;2022-09-09T14:59:00;19.50;99.90
15630;DHT22;7914;50.842;0.166;2022-09-09T15:01:27;19.50;99.90
15630;DHT22;7914;50.842;0.166;2022-09-09T15:03:58;19.50;99.90
15630;DHT22;7914;50.842;0.166;2022-09-09T15:06:25;19.40;99.90
15630;DHT22;7914;50.842;0.166;2022-09-09T15:08:52;19.50;99.90
15630;DHT22;7914;50.842;0.166;2022-09-09T15:11:19;19.50;99.90
15630;DHT22;7914;50.842;0.166;2022-09-09T15:13:46;19.50;99.90
15630;DHT22;7914;50.842;0.166;2022-09-09T15:16:15;19.40;99.90
15630;DHT22;7914;50.842;0.166;2022-09-09T15:18:41;19.40;99.90
15630;DHT22;7914;50.842;0.166;2022-09-09T15:21:16;19.50;99.90
15630;DHT22;7914;50.842;0.166;2022-09-09T15:23:42;19.40;99.90
15630;DHT22;7914;50.842;0.166;2022-09-09T15:26:09;19.30;99.90
15630;DHT22;7914;50.842;0.166;2022-09-09T15:28:36;19.30;99.90
15630;DHT22;7914;50.842;0.166;2022-09-09T15:31:27;19.20;99.90
15630;DHT22;7914;50.842;0.166;2022-09-09T15:34:02;19.20;99.90
15630;DHT22;7914;50.842;0.166;2022-09-09T15:36:29;19.20;99.90
15630;DHT22;7914;50.842;0.166;2022-09-09T15:38:58;19.20;99.90
15630;DHT22;7914;50.842;0.166;2022-09-09T15:41:24;19.30;99.90
15630;DHT22;7914;50.842;0.166;2022-09-09T15:43:52;19.30;99.90
15630;DHT22;7914;50.842;0.166;2022-09-09T15:46:22;19.40;99.90
15630;DHT22;7914;50.842;0.166;2022-09-09T15:48:57;19.40;99.90
15630;DHT22;7914;50.842;0.166;2022-09-09T15:51:24;19.40;99.90
15630;DHT22;7914;50.842;0.166;2022-09-09T15:53:55;19.50;99.90
15630;DHT22;7914;50.842;0.166;2022-09-09T15:56:22;19.50;99.90
15630;DHT22;7914;50.842;0.166;2022-09-09T15:58:48;19.40;99.90
15630;DHT22;7914;50.842;0.166;2022-09-09T16:01:13;19.40;99.90
15630;DHT22;7914;50.842;0.166;2022-09-09T16:03:41;19.40;99.90
15630;DHT22;7914;50.842;0.166;2022-09-09T16:06:08;19.40;99.90
15630;DHT22;7914;50.842;0.166;2022-09-09T16:08:42;19.40;99.90
15630;DHT22;7914;50.842;0.166;2022-09-09T16:11:14;19.30;99.90
15630;DHT22;7914;50.842;0.166;2022-09-09T16:13:42;19.30;99.90
15630;DHT22;7914;50.842;0.166;2022-09-09T16:16:10;19.20;99.90
15630;DHT22;7914;50.842;0.166;2022-09-09T16:18:41;19.20;99.90
15630;DHT22;7914;50.842;0.166;2022-09-09T16:21:07;19.30;99.90
15630;DHT22;7914;50.842;0.166;2022-09-09T16:23:34;19.30;99.90
15630;DHT22;7914;50.842;0.166;2022-09-09T16:26:01;19.30;99.90
15630;DHT22;7914;50.842;0.166;2022-09-09T16:28:27;19.20;99.90
15630;DHT22;7914;50.842;0.166;2022-09-09T16:30:53;19.30;99.90
15630;DHT22;7914;50.842;0.166;2022-09-09T16:33:19;19.30;99.90
15630;DHT22;7914;50.842;0.166;2022-09-09T16:35:45;19.30;99.90
15630;DHT22;7914;50.842;0.166;2022-09-09T16:38:11;19.30;99.90
15630;DHT22;7914;50.842;0.166;2022-09-09T16:40:37;19.30;99.90
15630;DHT22;7914;50.842;0.166;2022-09-09T16:43:04;19.30;99.90
15630;DHT22;7914;50.842;0.166;2022-09-09T16:45:31;19.30;99.90
15630;DHT22;7914;50.842;0.166;2022-09-09T16:47:58;19.40;99.90
15630;DHT22;7914;50.842;0.166;2022-09-09T16:50:25;19.30;99.90
15630;DHT22;7914;50.842;0.166;2022-09-09T16:52:52;19.40;99.90
15630;DHT22;7914;50.842;0.166;2022-09-09T16:55:18;19.30;99.90
15630;DHT22;7914;50.842;0.166;2022-09-09T16:57:47;19.30;99.90
15630;DHT22;7914;50.842;0.166;2022-09-09T17:00:15;19.30;99.90
15630;DHT22;7914;50.842;0.166;2022-09-09T17:02:43;19.10;99.90
15630;DHT22;7914;50.842;0.166;2022-09-09T17:05:10;19.20;99.90
15630;DHT22;7914;50.842;0.166;2022-09-09T17:07:37;19.10;99.90
15630;DHT22;7914;50.842;0.166;2022-09-09T17:10:04;19.00;99.90
15630;DHT22;7914;50.842;0.166;2022-09-09T17:12:31;18.90;99.90
15630;DHT22;7914;50.842;0.166;2022-09-09T17:14:57;18.90;99.90
15630;DHT22;7914;50.842;0.166;2022-09-09T17:17:25;18.80;99.90
15630;DHT22;7914;50.842;0.166;2022-09-09T17:19:52;18.80;99.90
15630;DHT22;7914;50.842;0.166;2022-09-09T17:22:18;18.80;99.90
15630;DHT22;7914;50.842;0.166;2022-09-09T17:24:45;18.80;99.90
15630;DHT22;7914;50.842;0.166;2022-09-09T17:27:11;18.80;99.90
15630;DHT22;7914;50.842;0.166;2022-09-09T17:29:38;18.70;99.90
15630;DHT22;7914;50.842;0.166;2022-09-09T17:32:05;18.70;99.90
15630;DHT22;7914;50.842;0.166;2022-09-09T17:34:31;18.70;99.90
15630;DHT22;7914;50.842;0.166;2022-09-09T17:36:57;18.70;99.90
15630;DHT22;7914;50.842;0.166;2022-09-09T17:39:22;18.60;99.90
15630;DHT22;7914;50.842;0.166;2022-09-09T17:41:48;18.50;99.90
15630;DHT22;7914;50.842;0.166;2022-09-09T17:44:14;18.40;99.90
15630;DHT22;7914;50.842;0.166;2022-09-09T17:46:42;18.40;99.90
15630;DHT22;7914;50.842;0.166;2022-09-09T17:49:13;18.30;99.90
15630;DHT22;7914;50.842;0.166;2022-09-09T17:51:40;18.20;99.90
15630;DHT22;7914;50.842;0.166;2022-09-09T17:54:12;18.00;99.90
15630;DHT22;7914;50.842;0.166;2022-09-09T17:56:39;18.00;99.90
15630;DHT22;7914;50.842;0.166;2022-09-09T17:59:07;17.90;99.90
15630;DHT22;7914;50.842;0.166;2022-09-09T18:01:36;17.80;99.90
15630;DHT22;7914;50.842;0.166;2022-09-09T18:04:04;17.80;99.90
15630;DHT22;7914;50.842;0.166;2022-09-09T18:06:38;17.80;99.90
15630;DHT22;7914;50.842;0.166;2022-09-09T18:09:07;17.70;99.90
15630;DHT22;7914;50.842;0.166;2022-09-09T18:11:36;17.70;99.90
15630;DHT22;7914;50.842;0.166;2022-09-09T18:14:04;17.60;99.90
15630;DHT22;7914;50.842;0.166;2022-09-09T18:16:32;17.60;99.90
15630;DHT22;7914;50.842;0.166;2022-09-09T18:19:02;17.50;99.90
15630;DHT22;7914;50.842;0.166;2022-09-09T18:21:30;17.40;99.90
15630;DHT22;7914;50.842;0.166;2022-09-09T18:24:01;17.40;99.90
15630;DHT22;7914;50.842;0.166;2022-09-09T18:26:27;17.30;99.90
15630;DHT22;7914;50.842;0.166;2022-09-09T18:28:55;17.30;99.90
15630;DHT22;7914;50.842;0.166;2022-09-09T18:31:23;17.20;99.90
15630;DHT22;7914;50.842;0.166;2022-09-09T18:33:49;17.20;99.90